sensor_id;sensor_type;location;lat;lon;timestamp;P1;durP1;ratioP1;P2;durP2;ratioP2
3171;SDS011;1597;51.572;6.992;2022-09-09T00:04:15;2.60;;;1.57;;
3171;SDS011;1597;51.572;6.992;2022-09-09T00:13:24;4.43;;;1.77;;
3171;SDS011;1597;51.572;6.992;2022-09-09T00:16:17;3.13;;;1.83;;
3171;SDS011;1597;51.572;6.992;2022-09-09T00:19:24;3.00;;;2.20;;
3171;SDS011;1597;51.572;6.992;2022-09-09T00:22:00;4.27;;;1.70;;
3171;SDS011;1597;51.572;6.992;2022-09-09T00:25:19;2.40;;;2.20;;
3171;SDS011;1597;51.572;6.992;2022-09-09T00:27:47;3.10;;;2.35;;
3171;SDS011;1597;51.572;6.992;2022-09-09T00:30:18;2.90;;;2.13;;
3171;SDS011;1597;51.572;6.992;2022-09-09T00:32:49;4.13;;;1.73;;
3171;SDS011;1597;51.572;6.992;2022-09-09T00:35:33;3.57;;;2.50;;
3171;SDS011;1597;51.572;6.992;2022-09-09T00:38:10;3.90;;;2.50;;
3171;SDS011;1597;51.572;6.992;2022-09-09T00:41:11;4.45;;;2.35;;
3171;SDS011;1597;51.572;6.992;2022-09-09T00:44:43;3.10;;;2.00;;
3171;SDS011;1597;51.572;6.992;2022-09-09T00:55:58;4.28;;;2.45;;
3171;SDS011;1597;51.572;6.992;2022-09-09T00:58:42;2.40;;;1.80;;
3171;SDS011;1597;51.572;6.992;2022-09-09T01:01:17;2.43;;;1.67;;
3171;SDS011;1597;51.572;6.992;2022-09-09T01:06:24;2.27;;;1.87;;
3171;SDS011;1597;51.572;6.992;2022-09-09T01:09:45;2.10;;;1.90;;
3171;SDS011;1597;51.572;6.992;2022-09-09T01:12:14;2.47;;;1.70;;
3171;SDS011;1597;51.572;6.992;2022-09-09T01:17:58;2.80;;;1.80;;
3171;SDS011;1597;51.572;6.992;2022-09-09T01:26:24;3.03;;;1.90;;
3171;SDS011;1597;51.572;6.992;2022-09-09T01:29:04;5.33;;;1.83;;
3171;SDS011;1597;51.572;6.992;2022-09-09T01:31:52;1.93;;;1.63;;
3171;SDS011;1597;51.572;6.992;2022-09-09T01:34:44;4.53;;;1.80;;
3171;SDS011;1597;51.572;6.992;2022-09-09T01:37:11;2.63;;;2.27;;
3171;SDS011;1597;51.572;6.992;2022-09-09T01:39:38;3.30;;;2.33;;
3171;SDS011;1597;51.572;6.992;2022-09-09T01:42:09;3.80;;;2.40;;
3171;SDS011;1597;51.572;6.992;2022-09-09T01:44:39;4.27;;;3.33;;
3171;SDS011;1597;51.572;6.992;2022-09-09T01:47:04;3.30;;;3.00;;
3171;SDS011;1597;51.572;6.992;2022-09-09T01:49:31;4.68;;;2.92;;
3171;SDS011;1597;51.572;6.992;2022-09-09T01:51:57;5.07;;;3.00;;
3171;SDS011;1597;51.572;6.992;2022-09-09T01:54:24;3.53;;;2.50;;
3171;SDS011;1597;51.572;6.992;2022-09-09T01:57:02;3.87;;;2.63;;
3171;SDS011;1597;51.572;6.992;2022-09-09T02:05:38;3.13;;;2.05;;
3171;SDS011;1597;51.572;6.992;2022-09-09T02:08:20;4.13;;;2.13;;
3171;SDS011;1597;51.572;6.992;2022-09-09T02:10:59;2.47;;;2.20;;
3171;SDS011;1597;51.572;6.992;2022-09-09T02:13:35;6.60;;;2.30;;
3171;SDS011;1597;51.572;6.992;2022-09-09T02:16:07;3.23;;;2.77;;
3171;SDS011;1597;51.572;6.992;2022-09-09T02:21:26;2.83;;;2.17;;
3171;SDS011;1597;51.572;6.992;2022-09-09T02:23:54;2.43;;;1.90;;
3171;SDS011;1597;51.572;6.992;2022-09-09T02:26:24;3.65;;;2.20;;
3171;SDS011;1597;51.572;6.992;2022-09-09T02:28:52;3.83;;;2.27;;
3171;SDS011;1597;51.572;6.992;2022-09-09T02:31:22;7.38;;;2.42;;
3171;SDS011;1597;51.572;6.992;2022-09-09T02:33:54;5.73;;;2.87;;
3171;SDS011;1597;51.572;6.992;2022-09-09T02:36:25;2.73;;;1.70;;
3171;SDS011;1597;51.572;6.992;2022-09-09T02:38:58;4.60;;;2.20;;
3171;SDS011;1597;51.572;6.992;2022-09-09T02:41:43;5.50;;;2.40;;
3171;SDS011;1597;51.572;6.992;2022-09-09T02:44:10;3.17;;;1.83;;
3171;SDS011;1597;51.572;6.992;2022-09-09T02:55:35;4.97;;;2.53;;
3171;SDS011;1597;51.572;6.992;2022-09-09T02:58:27;4.07;;;2.40;;
3171;SDS011;1597;51.572;6.992;2022-09-09T03:00:53;2.50;;;2.30;;
3171;SDS011;1597;51.572;6.992;2022-09-09T03:03:22;2.50;;;2.07;;
3171;SDS011;1597;51.572;6.992;2022-09-09T03:05:48;3.13;;;2.30;;
3171;SDS011;1597;51.572;6.992;2022-09-09T03:08:14;4.20;;;2.07;;
3171;SDS011;1597;51.572;6.992;2022-09-09T03:10:41;2.17;;;1.97;;
3171;SDS011;1597;51.572;6.992;2022-09-09T03:13:07;3.50;;;2.30;;
3171;SDS011;1597;51.572;6.992;2022-09-09T03:15:33;3.07;;;2.50;;
3171;SDS011;1597;51.572;6.992;2022-09-09T03:18:00;2.93;;;2.60;;
3171;SDS011;1597;51.572;6.992;2022-09-09T03:20:26;4.30;;;2.60;;
3171;SDS011;1597;51.572;6.992;2022-09-09T03:22:55;3.57;;;2.73;;
3171;SDS011;1597;51.572;6.992;2022-09-09T03:25:21;3.33;;;2.20;;
3171;SDS011;1597;51.572;6.992;2022-09-09T03:27:49;4.93;;;2.60;;
3171;SDS011;1597;51.572;6.992;2022-09-09T03:30:18;3.57;;;2.23;;
3171;SDS011;1597;51.572;6.992;2022-09-09T03:32:44;3.07;;;1.90;;
3171;SDS011;1597;51.572;6.992;2022-09-09T03:35:09;2.70;;;2.30;;
3171;SDS011;1597;51.572;6.992;2022-09-09T03:37:35;3.70;;;2.60;;
3171;SDS011;1597;51.572;6.992;2022-09-09T03:40:01;7.93;;;2.37;;
3171;SDS011;1597;51.572;6.992;2022-09-09T03:42:29;3.57;;;2.27;;
3171;SDS011;1597;51.572;6.992;2022-09-09T03:44:55;2.87;;;2.23;;
3171;SDS011;1597;51.572;6.992;2022-09-09T03:47:22;5.47;;;3.00;;
3171;SDS011;1597;51.572;6.992;2022-09-09T03:49:48;4.87;;;2.33;;
3171;SDS011;1597;51.572;6.992;2022-09-09T03:52:15;8.00;;;2.70;;
3171;SDS011;1597;51.572;6.992;2022-09-09T03:54:41;6.43;;;2.20;;
3171;SDS011;1597;51.572;6.992;2022-09-09T03:57:08;3.23;;;1.83;;
3171;SDS011;1597;51.572;6.992;2022-09-09T03:59:35;2.97;;;2.35;;
3171;SDS011;1597;51.572;6.992;2022-09-09T04:02:02;4.13;;;2.33;;
3171;SDS011;1597;51.572;6.992;2022-09-09T04:04:29;3.00;;;1.90;;
3171;SDS011;1597;51.572;6.992;2022-09-09T04:06:55;3.63;;;2.30;;
3171;SDS011;1597;51.572;6.992;2022-09-09T04:09:20;3.17;;;2.33;;
3171;SDS011;1597;51.572;6.992;2022-09-09T04:11:46;5.20;;;2.20;;
3171;SDS011;1597;51.572;6.992;2022-09-09T04:14:12;2.80;;;2.60;;
3171;SDS011;1597;51.572;6.992;2022-09-09T04:16:38;7.43;;;2.77;;
3171;SDS011;1597;51.572;6.992;2022-09-09T04:19:04;4.00;;;2.73;;
3171;SDS011;1597;51.572;6.992;2022-09-09T04:21:31;5.10;;;3.17;;
3171;SDS011;1597;51.572;6.992;2022-09-09T04:23:57;5.13;;;2.70;;
3171;SDS011;1597;51.572;6.992;2022-09-09T04:26:23;5.47;;;3.20;;
3171;SDS011;1597;51.572;6.992;2022-09-09T04:28:49;5.43;;;2.30;;
3171;SDS011;1597;51.572;6.992;2022-09-09T04:31:19;5.03;;;2.40;;
3171;SDS011;1597;51.572;6.992;2022-09-09T04:33:48;3.93;;;2.37;;
3171;SDS011;1597;51.572;6.992;2022-09-09T04:36:15;3.90;;;1.77;;
3171;SDS011;1597;51.572;6.992;2022-09-09T04:38:43;2.60;;;2.20;;
3171;SDS011;1597;51.572;6.992;2022-09-09T04:41:09;4.57;;;2.53;;
3171;SDS011;1597;51.572;6.992;2022-09-09T04:43:36;7.73;;;2.67;;
3171;SDS011;1597;51.572;6.992;2022-09-09T04:46:03;4.43;;;2.80;;
3171;SDS011;1597;51.572;6.992;2022-09-09T04:48:30;4.47;;;1.90;;
3171;SDS011;1597;51.572;6.992;2022-09-09T04:51:00;7.70;;;2.90;;
3171;SDS011;1597;51.572;6.992;2022-09-09T04:53:32;5.23;;;3.27;;
3171;SDS011;1597;51.572;6.992;2022-09-09T04:56:01;7.22;;;5.50;;
3171;SDS011;1597;51.572;6.992;2022-09-09T04:58:32;8.73;;;5.90;;
3171;SDS011;1597;51.572;6.992;2022-09-09T05:01:08;13.13;;;10.53;;
3171;SDS011;1597;51.572;6.992;2022-09-09T05:03:47;16.03;;;11.37;;
3171;SDS011;1597;51.572;6.992;2022-09-09T05:06:14;18.07;;;11.83;;
3171;SDS011;1597;51.572;6.992;2022-09-09T05:08:42;12.80;;;11.40;;
3171;SDS011;1597;51.572;6.992;2022-09-09T05:11:28;17.63;;;11.07;;
3171;SDS011;1597;51.572;6.992;2022-09-09T05:13:57;15.43;;;10.77;;
3171;SDS011;1597;51.572;6.992;2022-09-09T05:16:23;11.60;;;7.93;;
3171;SDS011;1597;51.572;6.992;2022-09-09T05:18:49;8.00;;;7.20;;
3171;SDS011;1597;51.572;6.992;2022-09-09T05:21:19;13.03;;;7.37;;
3171;SDS011;1597;51.572;6.992;2022-09-09T05:23:47;8.83;;;7.70;;
3171;SDS011;1597;51.572;6.992;2022-09-09T05:26:14;11.07;;;6.30;;
3171;SDS011;1597;51.572;6.992;2022-09-09T05:28:43;10.48;;;6.43;;
3171;SDS011;1597;51.572;6.992;2022-09-09T05:31:10;11.83;;;6.90;;
3171;SDS011;1597;51.572;6.992;2022-09-09T05:33:40;9.07;;;6.43;;
3171;SDS011;1597;51.572;6.992;2022-09-09T05:36:08;12.15;;;7.43;;
3171;SDS011;1597;51.572;6.992;2022-09-09T05:38:40;9.80;;;7.03;;
3171;SDS011;1597;51.572;6.992;2022-09-09T05:41:06;10.00;;;7.47;;
3171;SDS011;1597;51.572;6.992;2022-09-09T05:43:33;11.07;;;7.87;;
3171;SDS011;1597;51.572;6.992;2022-09-09T05:48:33;19.00;;;7.83;;
3171;SDS011;1597;51.572;6.992;2022-09-09T05:51:02;9.10;;;7.93;;
3171;SDS011;1597;51.572;6.992;2022-09-09T05:53:30;14.03;;;8.87;;
3171;SDS011;1597;51.572;6.992;2022-09-09T05:56:06;13.67;;;9.50;;
3171;SDS011;1597;51.572;6.992;2022-09-09T05:58:35;12.60;;;8.90;;
3171;SDS011;1597;51.572;6.992;2022-09-09T06:01:06;13.03;;;8.60;;
3171;SDS011;1597;51.572;6.992;2022-09-09T06:03:39;11.80;;;8.97;;
3171;SDS011;1597;51.572;6.992;2022-09-09T06:06:07;16.10;;;8.30;;
3171;SDS011;1597;51.572;6.992;2022-09-09T06:08:37;13.57;;;7.70;;
3171;SDS011;1597;51.572;6.992;2022-09-09T06:13:34;15.00;;;5.80;;
3171;SDS011;1597;51.572;6.992;2022-09-09T06:16:02;11.17;;;6.43;;
3171;SDS011;1597;51.572;6.992;2022-09-09T06:18:29;8.70;;;4.93;;
3171;SDS011;1597;51.572;6.992;2022-09-09T06:20:59;8.70;;;5.20;;
3171;SDS011;1597;51.572;6.992;2022-09-09T06:23:31;11.65;;;4.25;;
3171;SDS011;1597;51.572;6.992;2022-09-09T06:26:10;8.43;;;4.87;;
3171;SDS011;1597;51.572;6.992;2022-09-09T06:28:45;9.33;;;4.40;;
3171;SDS011;1597;51.572;6.992;2022-09-09T06:31:15;6.07;;;3.80;;
3171;SDS011;1597;51.572;6.992;2022-09-09T06:33:42;4.53;;;3.73;;
3171;SDS011;1597;51.572;6.992;2022-09-09T06:36:28;7.33;;;4.37;;
3171;SDS011;1597;51.572;6.992;2022-09-09T06:38:57;7.10;;;3.83;;
3171;SDS011;1597;51.572;6.992;2022-09-09T06:41:28;4.70;;;3.60;;
3171;SDS011;1597;51.572;6.992;2022-09-09T06:43:56;10.43;;;4.60;;
3171;SDS011;1597;51.572;6.992;2022-09-09T06:46:23;9.37;;;4.03;;
3171;SDS011;1597;51.572;6.992;2022-09-09T06:48:56;5.33;;;4.20;;
3171;SDS011;1597;51.572;6.992;2022-09-09T06:51:24;3.93;;;3.53;;
3171;SDS011;1597;51.572;6.992;2022-09-09T06:53:56;4.50;;;2.75;;
3171;SDS011;1597;51.572;6.992;2022-09-09T06:58:56;6.60;;;3.23;;
3171;SDS011;1597;51.572;6.992;2022-09-09T07:01:27;7.90;;;4.37;;
3171;SDS011;1597;51.572;6.992;2022-09-09T07:03:57;6.60;;;3.63;;
3171;SDS011;1597;51.572;6.992;2022-09-09T07:06:29;4.22;;;3.10;;
3171;SDS011;1597;51.572;6.992;2022-09-09T07:09:01;7.00;;;3.20;;
3171;SDS011;1597;51.572;6.992;2022-09-09T07:11:33;5.80;;;3.07;;
3171;SDS011;1597;51.572;6.992;2022-09-09T07:14:03;5.57;;;2.60;;
3171;SDS011;1597;51.572;6.992;2022-09-09T07:16:29;8.17;;;3.20;;
3171;SDS011;1597;51.572;6.992;2022-09-09T07:18:57;6.80;;;3.13;;
3171;SDS011;1597;51.572;6.992;2022-09-09T07:21:23;5.43;;;2.60;;
3171;SDS011;1597;51.572;6.992;2022-09-09T07:23:53;7.43;;;3.30;;
3171;SDS011;1597;51.572;6.992;2022-09-09T07:26:21;4.50;;;2.63;;
3171;SDS011;1597;51.572;6.992;2022-09-09T07:28:50;7.70;;;3.27;;
3171;SDS011;1597;51.572;6.992;2022-09-09T07:31:23;2.90;;;2.60;;
3171;SDS011;1597;51.572;6.992;2022-09-09T07:33:58;4.10;;;2.03;;
3171;SDS011;1597;51.572;6.992;2022-09-09T07:36:26;9.20;;;2.97;;
3171;SDS011;1597;51.572;6.992;2022-09-09T07:39:02;7.88;;;3.03;;
3171;SDS011;1597;51.572;6.992;2022-09-09T07:41:36;13.13;;;2.57;;
3171;SDS011;1597;51.572;6.992;2022-09-09T07:44:12;6.70;;;2.10;;
3171;SDS011;1597;51.572;6.992;2022-09-09T07:46:40;5.37;;;2.43;;
3171;SDS011;1597;51.572;6.992;2022-09-09T07:49:06;5.45;;;2.45;;
3171;SDS011;1597;51.572;6.992;2022-09-09T07:51:34;7.27;;;2.13;;
3171;SDS011;1597;51.572;6.992;2022-09-09T07:54:07;8.17;;;5.07;;
3171;SDS011;1597;51.572;6.992;2022-09-09T07:56:40;3.03;;;2.13;;
3171;SDS011;1597;51.572;6.992;2022-09-09T07:59:07;6.57;;;2.30;;
3171;SDS011;1597;51.572;6.992;2022-09-09T08:01:35;2.37;;;1.90;;
3171;SDS011;1597;51.572;6.992;2022-09-09T08:04:11;6.07;;;3.47;;
3171;SDS011;1597;51.572;6.992;2022-09-09T08:06:43;5.30;;;2.77;;
3171;SDS011;1597;51.572;6.992;2022-09-09T08:09:18;7.38;;;2.30;;
3171;SDS011;1597;51.572;6.992;2022-09-09T08:11:44;6.13;;;2.43;;
3171;SDS011;1597;51.572;6.992;2022-09-09T08:14:10;5.10;;;2.20;;
3171;SDS011;1597;51.572;6.992;2022-09-09T08:16:38;4.53;;;2.63;;
3171;SDS011;1597;51.572;6.992;2022-09-09T08:19:10;5.77;;;2.07;;
3171;SDS011;1597;51.572;6.992;2022-09-09T08:21:37;5.37;;;2.30;;
3171;SDS011;1597;51.572;6.992;2022-09-09T08:24:05;4.80;;;2.67;;
3171;SDS011;1597;51.572;6.992;2022-09-09T08:26:37;5.97;;;2.47;;
3171;SDS011;1597;51.572;6.992;2022-09-09T08:29:06;5.93;;;1.90;;
3171;SDS011;1597;51.572;6.992;2022-09-09T08:31:39;5.80;;;1.90;;
3171;SDS011;1597;51.572;6.992;2022-09-09T08:34:10;3.70;;;1.93;;
3171;SDS011;1597;51.572;6.992;2022-09-09T08:36:40;4.70;;;1.90;;
3171;SDS011;1597;51.572;6.992;2022-09-09T08:39:09;5.87;;;2.20;;
3171;SDS011;1597;51.572;6.992;2022-09-09T08:44:40;4.30;;;2.10;;
3171;SDS011;1597;51.572;6.992;2022-09-09T08:48:10;4.73;;;2.00;;
3171;SDS011;1597;51.572;6.992;2022-09-09T08:51:17;9.00;;;2.20;;
3171;SDS011;1597;51.572;6.992;2022-09-09T08:53:45;4.00;;;2.20;;
3171;SDS011;1597;51.572;6.992;2022-09-09T08:56:16;7.37;;;2.73;;
3171;SDS011;1597;51.572;6.992;2022-09-09T08:58:50;2.47;;;2.07;;
3171;SDS011;1597;51.572;6.992;2022-09-09T09:09:47;2.93;;;1.57;;
3171;SDS011;1597;51.572;6.992;2022-09-09T09:12:40;7.07;;;3.13;;
3171;SDS011;1597;51.572;6.992;2022-09-09T09:15:53;3.70;;;1.55;;
3171;SDS011;1597;51.572;6.992;2022-09-09T09:18:02;3.73;;;2.93;;
3171;SDS011;1597;51.572;6.992;2022-09-09T09:20:38;4.67;;;1.90;;
3171;SDS011;1597;51.572;6.992;2022-09-09T09:23:24;4.50;;;1.90;;
3171;SDS011;1597;51.572;6.992;2022-09-09T09:26:01;8.33;;;2.10;;
3171;SDS011;1597;51.572;6.992;2022-09-09T09:28:29;3.57;;;1.80;;
3171;SDS011;1597;51.572;6.992;2022-09-09T09:30:59;3.80;;;1.27;;
3171;SDS011;1597;51.572;6.992;2022-09-09T09:33:36;7.07;;;1.87;;
3171;SDS011;1597;51.572;6.992;2022-09-09T09:36:11;8.67;;;5.77;;
3171;SDS011;1597;51.572;6.992;2022-09-09T09:38:40;2.37;;;1.93;;
3171;SDS011;1597;51.572;6.992;2022-09-09T09:41:29;5.47;;;2.00;;
3171;SDS011;1597;51.572;6.992;2022-09-09T09:43:59;2.53;;;1.87;;
3171;SDS011;1597;51.572;6.992;2022-09-09T09:46:26;4.27;;;1.40;;
3171;SDS011;1597;51.572;6.992;2022-09-09T09:49:03;4.33;;;2.80;;
3171;SDS011;1597;51.572;6.992;2022-09-09T09:51:31;17.20;;;11.83;;
3171;SDS011;1597;51.572;6.992;2022-09-09T09:56:44;7.23;;;2.00;;
3171;SDS011;1597;51.572;6.992;2022-09-09T09:59:20;2.47;;;1.45;;
3171;SDS011;1597;51.572;6.992;2022-09-09T10:01:52;3.43;;;1.77;;
3171;SDS011;1597;51.572;6.992;2022-09-09T10:04:20;5.00;;;1.90;;
3171;SDS011;1597;51.572;6.992;2022-09-09T10:06:50;5.50;;;2.97;;
3171;SDS011;1597;51.572;6.992;2022-09-09T10:09:23;5.17;;;2.00;;
3171;SDS011;1597;51.572;6.992;2022-09-09T10:14:48;3.30;;;1.67;;
3171;SDS011;1597;51.572;6.992;2022-09-09T10:17:40;4.30;;;1.93;;
3171;SDS011;1597;51.572;6.992;2022-09-09T10:23:21;7.03;;;2.58;;
3171;SDS011;1597;51.572;6.992;2022-09-09T10:34:34;4.33;;;1.73;;
3171;SDS011;1597;51.572;6.992;2022-09-09T10:39:57;2.40;;;1.20;;
3171;SDS011;1597;51.572;6.992;2022-09-09T10:42:53;3.33;;;1.20;;
3171;SDS011;1597;51.572;6.992;2022-09-09T10:51:48;4.00;;;1.43;;
3171;SDS011;1597;51.572;6.992;2022-09-09T10:59:57;2.40;;;1.23;;
3171;SDS011;1597;51.572;6.992;2022-09-09T11:02:31;3.30;;;1.60;;
3171;SDS011;1597;51.572;6.992;2022-09-09T11:11:02;2.30;;;1.53;;
3171;SDS011;1597;51.572;6.992;2022-09-09T11:18:50;2.70;;;2.00;;
3171;SDS011;1597;51.572;6.992;2022-09-09T11:21:27;3.90;;;2.30;;
3171;SDS011;1597;51.572;6.992;2022-09-09T11:24:00;1.75;;;1.10;;
3171;SDS011;1597;51.572;6.992;2022-09-09T11:26:41;2.93;;;1.30;;
3171;SDS011;1597;51.572;6.992;2022-09-09T11:38:16;2.03;;;1.40;;
3171;SDS011;1597;51.572;6.992;2022-09-09T11:40:59;1.87;;;1.17;;
3171;SDS011;1597;51.572;6.992;2022-09-09T11:46:17;3.37;;;2.07;;
3171;SDS011;1597;51.572;6.992;2022-09-09T11:49:00;3.27;;;1.43;;
3171;SDS011;1597;51.572;6.992;2022-09-09T11:51:29;4.63;;;1.60;;
3171;SDS011;1597;51.572;6.992;2022-09-09T11:59:19;3.33;;;1.33;;
3171;SDS011;1597;51.572;6.992;2022-09-09T12:04:47;3.83;;;1.90;;
3171;SDS011;1597;51.572;6.992;2022-09-09T12:07:51;4.70;;;1.80;;
3171;SDS011;1597;51.572;6.992;2022-09-09T12:10:26;2.33;;;1.67;;
3171;SDS011;1597;51.572;6.992;2022-09-09T12:15:48;3.85;;;1.52;;
3171;SDS011;1597;51.572;6.992;2022-09-09T12:18:36;2.37;;;1.67;;
3171;SDS011;1597;51.572;6.992;2022-09-09T12:21:27;3.93;;;1.60;;
3171;SDS011;1597;51.572;6.992;2022-09-09T12:24:11;5.77;;;1.83;;
3171;SDS011;1597;51.572;6.992;2022-09-09T12:26:52;4.00;;;1.80;;
3171;SDS011;1597;51.572;6.992;2022-09-09T12:32:23;1.53;;;1.40;;
3171;SDS011;1597;51.572;6.992;2022-09-09T12:34:52;3.27;;;1.43;;
3171;SDS011;1597;51.572;6.992;2022-09-09T12:40:19;4.40;;;2.03;;
3171;SDS011;1597;51.572;6.992;2022-09-09T12:42:50;2.15;;;1.02;;
3171;SDS011;1597;51.572;6.992;2022-09-09T12:50:48;2.40;;;1.13;;
3171;SDS011;1597;51.572;6.992;2022-09-09T12:53:25;2.40;;;1.43;;
3171;SDS011;1597;51.572;6.992;2022-09-09T12:55:59;2.33;;;1.20;;
3171;SDS011;1597;51.572;6.992;2022-09-09T12:58:33;6.50;;;1.63;;
3171;SDS011;1597;51.572;6.992;2022-09-09T13:01:02;2.93;;;1.37;;
3171;SDS011;1597;51.572;6.992;2022-09-09T13:03:30;7.63;;;3.03;;
3171;SDS011;1597;51.572;6.992;2022-09-09T13:05:58;2.73;;;1.77;;
3171;SDS011;1597;51.572;6.992;2022-09-09T13:08:43;3.97;;;2.80;;
3171;SDS011;1597;51.572;6.992;2022-09-09T13:11:10;2.25;;;1.50;;
3171;SDS011;1597;51.572;6.992;2022-09-09T13:13:50;2.80;;;1.20;;
3171;SDS011;1597;51.572;6.992;2022-09-09T13:16:20;6.57;;;1.60;;
3171;SDS011;1597;51.572;6.992;2022-09-09T13:18:57;4.47;;;1.60;;
3171;SDS011;1597;51.572;6.992;2022-09-09T13:21:33;2.78;;;1.45;;
3171;SDS011;1597;51.572;6.992;2022-09-09T13:24:00;2.87;;;1.60;;
3171;SDS011;1597;51.572;6.992;2022-09-09T13:26:29;3.30;;;2.03;;
3171;SDS011;1597;51.572;6.992;2022-09-09T13:28:55;4.73;;;2.30;;
3171;SDS011;1597;51.572;6.992;2022-09-09T13:31:43;3.00;;;2.20;;
3171;SDS011;1597;51.572;6.992;2022-09-09T13:37:00;1.90;;;0.90;;
3171;SDS011;1597;51.572;6.992;2022-09-09T13:39:36;5.03;;;1.30;;
3171;SDS011;1597;51.572;6.992;2022-09-09T13:42:03;1.93;;;1.00;;
3171;SDS011;1597;51.572;6.992;2022-09-09T13:44:39;3.23;;;1.53;;
3171;SDS011;1597;51.572;6.992;2022-09-09T13:47:17;2.20;;;1.70;;
3171;SDS011;1597;51.572;6.992;2022-09-09T13:49:45;2.23;;;1.93;;
3171;SDS011;1597;51.572;6.992;2022-09-09T13:52:12;3.33;;;2.17;;
3171;SDS011;1597;51.572;6.992;2022-09-09T13:54:41;2.20;;;1.57;;
3171;SDS011;1597;51.572;6.992;2022-09-09T13:57:17;6.07;;;1.87;;
3171;SDS011;1597;51.572;6.992;2022-09-09T13:59:49;4.53;;;2.40;;
3171;SDS011;1597;51.572;6.992;2022-09-09T14:02:15;2.40;;;1.80;;
3171;SDS011;1597;51.572;6.992;2022-09-09T14:04:41;4.57;;;2.10;;
3171;SDS011;1597;51.572;6.992;2022-09-09T14:07:11;10.13;;;2.07;;
3171;SDS011;1597;51.572;6.992;2022-09-09T14:09:43;4.40;;;2.27;;
3171;SDS011;1597;51.572;6.992;2022-09-09T14:12:13;4.90;;;3.72;;
3171;SDS011;1597;51.572;6.992;2022-09-09T14:14:40;5.77;;;2.37;;
3171;SDS011;1597;51.572;6.992;2022-09-09T14:17:09;2.37;;;2.17;;
3171;SDS011;1597;51.572;6.992;2022-09-09T14:19:35;5.27;;;2.37;;
3171;SDS011;1597;51.572;6.992;2022-09-09T14:22:02;3.33;;;2.20;;
3171;SDS011;1597;51.572;6.992;2022-09-09T14:24:28;4.30;;;2.40;;
3171;SDS011;1597;51.572;6.992;2022-09-09T14:26:54;1.97;;;1.70;;
3171;SDS011;1597;51.572;6.992;2022-09-09T14:29:20;2.40;;;1.93;;
3171;SDS011;1597;51.572;6.992;2022-09-09T14:31:45;5.37;;;2.00;;
3171;SDS011;1597;51.572;6.992;2022-09-09T14:34:12;9.93;;;3.13;;
3171;SDS011;1597;51.572;6.992;2022-09-09T14:36:39;5.40;;;2.57;;
3171;SDS011;1597;51.572;6.992;2022-09-09T14:39:06;3.30;;;2.30;;
3171;SDS011;1597;51.572;6.992;2022-09-09T14:41:32;4.50;;;2.80;;
3171;SDS011;1597;51.572;6.992;2022-09-09T14:43:59;15.63;;;8.50;;
3171;SDS011;1597;51.572;6.992;2022-09-09T14:46:25;5.63;;;2.47;;
3171;SDS011;1597;51.572;6.992;2022-09-09T14:48:51;6.10;;;2.60;;
3171;SDS011;1597;51.572;6.992;2022-09-09T14:51:18;2.20;;;1.90;;
3171;SDS011;1597;51.572;6.992;2022-09-09T14:53:53;5.28;;;3.55;;
3171;SDS011;1597;51.572;6.992;2022-09-09T14:56:23;7.70;;;3.40;;
3171;SDS011;1597;51.572;6.992;2022-09-09T14:58:55;3.73;;;2.30;;
3171;SDS011;1597;51.572;6.992;2022-09-09T15:01:25;4.23;;;2.37;;
3171;SDS011;1597;51.572;6.992;2022-09-09T15:03:53;2.87;;;2.23;;
3171;SDS011;1597;51.572;6.992;2022-09-09T15:06:24;3.10;;;2.80;;
3171;SDS011;1597;51.572;6.992;2022-09-09T15:08:54;3.50;;;1.90;;
3171;SDS011;1597;51.572;6.992;2022-09-09T15:11:22;5.93;;;3.10;;
3171;SDS011;1597;51.572;6.992;2022-09-09T15:13:50;3.73;;;2.43;;
3171;SDS011;1597;51.572;6.992;2022-09-09T15:16:18;2.17;;;1.63;;
3171;SDS011;1597;51.572;6.992;2022-09-09T15:18:49;3.90;;;2.20;;
3171;SDS011;1597;51.572;6.992;2022-09-09T15:21:20;4.43;;;2.40;;
3171;SDS011;1597;51.572;6.992;2022-09-09T15:23:48;4.37;;;1.80;;
3171;SDS011;1597;51.572;6.992;2022-09-09T15:26:14;1.50;;;1.10;;
3171;SDS011;1597;51.572;6.992;2022-09-09T15:28:42;3.83;;;3.40;;
3171;SDS011;1597;51.572;6.992;2022-09-09T15:31:11;2.83;;;1.10;;
3171;SDS011;1597;51.572;6.992;2022-09-09T15:33:50;2.50;;;1.20;;
3171;SDS011;1597;51.572;6.992;2022-09-09T15:36:21;1.98;;;1.33;;
3171;SDS011;1597;51.572;6.992;2022-09-09T15:38:50;1.43;;;1.30;;
3171;SDS011;1597;51.572;6.992;2022-09-09T15:41:17;2.53;;;1.27;;
3171;SDS011;1597;51.572;6.992;2022-09-09T15:43:45;2.58;;;1.80;;
3171;SDS011;1597;51.572;6.992;2022-09-09T15:48:42;2.10;;;1.77;;
3171;SDS011;1597;51.572;6.992;2022-09-09T15:51:09;3.27;;;1.60;;
3171;SDS011;1597;51.572;6.992;2022-09-09T15:53:39;6.85;;;2.10;;
3171;SDS011;1597;51.572;6.992;2022-09-09T15:56:05;2.50;;;1.87;;
3171;SDS011;1597;51.572;6.992;2022-09-09T15:58:32;3.20;;;1.70;;
3171;SDS011;1597;51.572;6.992;2022-09-09T16:01:03;4.70;;;2.50;;
3171;SDS011;1597;51.572;6.992;2022-09-09T16:03:36;3.60;;;1.73;;
3171;SDS011;1597;51.572;6.992;2022-09-09T16:06:04;9.47;;;2.53;;
3171;SDS011;1597;51.572;6.992;2022-09-09T16:08:31;4.33;;;3.63;;
3171;SDS011;1597;51.572;6.992;2022-09-09T16:11:21;3.50;;;3.10;;
3171;SDS011;1597;51.572;6.992;2022-09-09T16:13:57;2.47;;;2.20;;
3171;SDS011;1597;51.572;6.992;2022-09-09T16:16:26;3.90;;;2.67;;
3171;SDS011;1597;51.572;6.992;2022-09-09T16:18:55;4.77;;;2.43;;
3171;SDS011;1597;51.572;6.992;2022-09-09T16:21:29;2.83;;;2.10;;
3171;SDS011;1597;51.572;6.992;2022-09-09T16:23:58;8.40;;;2.10;;
3171;SDS011;1597;51.572;6.992;2022-09-09T16:26:27;2.60;;;1.67;;
3171;SDS011;1597;51.572;6.992;2022-09-09T16:28:55;4.20;;;1.70;;
3171;SDS011;1597;51.572;6.992;2022-09-09T16:31:26;2.10;;;1.50;;
3171;SDS011;1597;51.572;6.992;2022-09-09T16:33:53;2.33;;;1.63;;
3171;SDS011;1597;51.572;6.992;2022-09-09T16:36:20;2.17;;;1.70;;
3171;SDS011;1597;51.572;6.992;2022-09-09T16:38:55;2.80;;;2.07;;
3171;SDS011;1597;51.572;6.992;2022-09-09T16:41:27;2.07;;;1.50;;
3171;SDS011;1597;51.572;6.992;2022-09-09T16:43:58;2.00;;;1.80;;
3171;SDS011;1597;51.572;6.992;2022-09-09T16:46:27;1.90;;;1.40;;
3171;SDS011;1597;51.572;6.992;2022-09-09T16:48:56;2.50;;;1.50;;
3171;SDS011;1597;51.572;6.992;2022-09-09T16:51:24;1.70;;;1.60;;
3171;SDS011;1597;51.572;6.992;2022-09-09T16:53:53;5.05;;;1.98;;
3171;SDS011;1597;51.572;6.992;2022-09-09T16:56:23;1.70;;;1.60;;
3171;SDS011;1597;51.572;6.992;2022-09-09T16:58:52;3.17;;;1.67;;
3171;SDS011;1597;51.572;6.992;2022-09-09T17:01:23;3.97;;;1.23;;
3171;SDS011;1597;51.572;6.992;2022-09-09T17:03:54;1.23;;;1.13;;
3171;SDS011;1597;51.572;6.992;2022-09-09T17:06:29;2.10;;;1.30;;
3171;SDS011;1597;51.572;6.992;2022-09-09T17:09:00;3.70;;;1.57;;
3171;SDS011;1597;51.572;6.992;2022-09-09T17:11:33;1.50;;;1.40;;
3171;SDS011;1597;51.572;6.992;2022-09-09T17:13:59;5.40;;;1.93;;
3171;SDS011;1597;51.572;6.992;2022-09-09T17:16:26;2.47;;;1.80;;
3171;SDS011;1597;51.572;6.992;2022-09-09T17:18:55;2.50;;;1.80;;
3171;SDS011;1597;51.572;6.992;2022-09-09T17:21:24;3.73;;;2.27;;
3171;SDS011;1597;51.572;6.992;2022-09-09T17:23:51;2.83;;;2.40;;
3171;SDS011;1597;51.572;6.992;2022-09-09T17:26:19;3.00;;;1.70;;
3171;SDS011;1597;51.572;6.992;2022-09-09T17:28:47;3.53;;;2.03;;
3171;SDS011;1597;51.572;6.992;2022-09-09T17:31:14;3.93;;;2.10;;
3171;SDS011;1597;51.572;6.992;2022-09-09T17:33:46;2.20;;;2.00;;
3171;SDS011;1597;51.572;6.992;2022-09-09T17:36:15;2.00;;;1.77;;
3171;SDS011;1597;51.572;6.992;2022-09-09T17:38:51;2.87;;;2.23;;
3171;SDS011;1597;51.572;6.992;2022-09-09T17:41:19;3.07;;;1.83;;
3171;SDS011;1597;51.572;6.992;2022-09-09T17:43:58;2.15;;;1.77;;
3171;SDS011;1597;51.572;6.992;2022-09-09T17:46:28;3.47;;;2.40;;
3171;SDS011;1597;51.572;6.992;2022-09-09T17:48:59;3.55;;;2.42;;
3171;SDS011;1597;51.572;6.992;2022-09-09T17:51:30;2.17;;;1.90;;
3171;SDS011;1597;51.572;6.992;2022-09-09T17:54:07;2.83;;;1.90;;
3171;SDS011;1597;51.572;6.992;2022-09-09T17:56:38;2.50;;;2.30;;
3171;SDS011;1597;51.572;6.992;2022-09-09T17:59:06;4.17;;;2.60;;
3171;SDS011;1597;51.572;6.992;2022-09-09T18:01:35;4.27;;;2.10;;
3171;SDS011;1597;51.572;6.992;2022-09-09T18:04:04;4.28;;;2.55;;
3171;SDS011;1597;51.572;6.992;2022-09-09T18:06:34;3.57;;;2.97;;
3171;SDS011;1597;51.572;6.992;2022-09-09T18:09:07;3.13;;;2.10;;
3171;SDS011;1597;51.572;6.992;2022-09-09T18:11:39;3.03;;;2.23;;
3171;SDS011;1597;51.572;6.992;2022-09-09T18:14:10;5.00;;;2.50;;